Social Hill, Arkansas
Current Conditions -  °F | °C
As of 6:53 PM on Monday 20 Oct 2014 (Local Time) from KHOT Reporting Station
Overcast Overcast  
Wind Chill: 65°   Ceiling: 3700
Heat Index: 65°   Visibility: 10mi
Dew Point: 58°   Wind: 0mph
Humidity: 78%   Direction: NA
Pressure: 30.04"   Gusts: NA
Location:  34.3189°N, 92.8629°W
Report Text: KHOT 202353Z AUTO 00000KT 10SM OVC037 18/14 A3004 RMK AO2 SLP171 60000 T01830144 10206 20178 55002
Loading
Personal Weather Stations






























Interactive Weather Map
Tropical Storm Tracking
New forecast layout! Learn more

10-Day Weather Forecast

Advertisements
Track Severe Weather on mobile